Impacts TAF Board INFO
FOR SITUATIONAL AWARENESS. NOT TO BE USED FOR FLIGHT PLANNING PURPOSES.
IDs:

KPDX - Portland Intl Arpt, OR, US

Issued at 1452 UTC 23 Nov 2017
Updated at 1639 UTC 23 Nov 2017
Potential Impact None Slight Moderate High
Time1553Z 23/17Z 23/18Z 23/19Z 23/20Z 23/21Z 23/22Z 23/23Z 24/00Z 24/01Z 24/02Z 24/03Z 24/04Z 24/05Z>>
Type OBS PRVL
  [TEMP]  
PRVL
  [TEMP]  
PRVL
  [TEMP]  
PRVL
  [TEMP]  
PRVL
  [TEMP]  
PRVL
  [TEMP]  
PRVL PRVL PRVL PRVL PRVL PRVL PRVL
VIS 10 >6
  [4]  
>6
  [4]  
>6 >6 >6 >6 >6 >6 >6 >6 >6 >6 >6
CIG 50 50
  [15]  
50
  [15]  
50
  [25]  
50
  [25]  
50
  [25]  
50
  [25]  
50 50 50 50 50 50 50
Cover BKN OVC
  [OVC]  
OVC
  [OVC]  
OVC
  [OVC]  
OVC
  [OVC]  
OVC
  [OVC]  
OVC
  [OVC]  
OVC OVC OVC BKN BKN BKN BKN
FltCat VFR VFR
  [MVFR]  
VFR
  [MVFR]  
VFR
  [MVFR]  
VFR
  [MVFR]  
VFR
  [MVFR]  
VFR
  [MVFR]  
VFR VFR VFR VFR VFR VFR VFR
WX -- --
  [-RA -DZ]  
--
  [-RA -DZ]  
--
  [-RA]  
--
  [-RA]  
--
  [-RA]  
--
  [-RA]  
-- -- -- -- -- -- --
WDir 180 190
[190]
190
[190]
200
[200]
200
[200]
200
[200]
200
[200]
200 200 200 190 190 190 190
WSpd 10 9
  [9]  
9
  [9]  
11
  [11]  
11
  [11]  
11
  [11]  
11
  [11]  
11 11 11 6 6 6 6
WGst -- --
  [--]  
--
  [--]  
--
  [--]  
--
  [--]  
--
  [--]  
--
  [--]  
-- -- -- -- -- -- --

Raw TAF
KPDX 231452Z 2315/2412 19009KT P6SM SCT015 OVC050
  TEMPO 2315/2319 4SM -RADZ BKN015 OVC050
  FM231900 20011KT P6SM SCT025 BKN050 OVC080
  TEMPO 2319/2323 -RA BKN025 OVC050
  FM240200 19006KT P6SM SCT025 BKN050
  FM240600 VRB04KT P6SM SCT008 BKN020 OVC060


Raw METAR
KPDX 231553Z 18010KT 10SM FEW018 BKN050 BKN120 16/14 A2991 RMK AO2 RAE01 SLP126 P0000 T01560139
KPDX 231509Z 17011KT 10SM SCT013 BKN090 OVC110 16/14 A2990 RMK AO2 RAE01 P0000 T01560139
KPDX 231453Z 18010KT 10SM -RA SCT008 BKN013 BKN070 16/14 A2990 RMK AO2 RAB41 SLP124 P0001 60001 T01560144 58007
KPDX 231353Z 17008KT 10SM BKN008 BKN043 OVC120 15/14 A2991 RMK AO2 SLP128 T01500144

METAR Board
Radar Display
Forecast Discussion

FOR SITUATIONAL AWARENESS. NOT TO BE USED FOR FLIGHT PLANNING PURPOSES.